Time;durP1;ratioP1;P1;durP2;ratioP2;P2;SDS_P1;SDS_P2;PMS_P1;PMS_P2;Temp;Humidity;BMP_temperature;BMP_pressure;BME280_temperature;BME280_humidity;BME280_pressure;Samples;Min_cycle;Max_cycle;Signal;HPM_P1;HPM_P2
2023/10/03 00:01:38;;;;;;;54.20;26.13;;;;;;;16.24;70.73;96530.00;5044596;28;20420;-70
2023/10/03 00:04:04;;;;;;;43.07;23.50;;;;;;;16.17;71.28;96528.72;5045731;28;20170;-70
2023/10/03 00:06:33;;;;;;;45.70;23.30;;;;;;;16.19;71.11;96521.53;5047497;28;20995;-69
2023/10/03 00:08:59;;;;;;;50.60;27.90;;;;;;;16.06;71.55;96523.25;5049327;28;20401;-69
2023/10/03 00:11:24;;;;;;;44.17;21.43;;;;;;;15.93;71.74;96512.59;5049709;28;20416;-69
2023/10/03 00:13:50;;;;;;;45.93;25.10;;;;;;;15.81;72.10;96508.94;5049692;28;20171;-69
2023/10/03 00:16:17;;;;;;;53.63;24.93;;;;;;;16.04;71.04;96511.94;5049333;28;20183;-70
2023/10/03 00:18:43;;;;;;;43.03;23.67;;;;;;;16.18;70.70;96519.84;5049727;28;20272;-68
2023/10/03 00:21:08;;;;;;;53.03;26.03;;;;;;;16.09;70.67;96505.38;5050002;28;20433;-68
2023/10/03 00:23:33;;;;;;;53.87;24.80;;;;;;;16.10;71.24;96514.16;5049784;28;20166;-67
2023/10/03 00:25:59;;;;;;;48.00;23.80;;;;;;;16.15;70.66;96517.38;5049347;28;20305;-67
2023/10/03 00:28:32;;;;;;;41.27;22.33;;;;;;;16.16;70.65;96516.44;5048006;28;20167;-69
2023/10/03 00:30:58;;;;;;;48.00;24.10;;;;;;;16.11;70.59;96517.66;5049377;28;20187;-69
2023/10/03 00:33:25;;;;;;;38.40;23.20;;;;;;;16.14;70.45;96512.19;5049333;28;20409;-68
2023/10/03 00:35:53;;;;;;;38.43;23.60;;;;;;;16.12;70.23;96514.09;5049245;28;21215;-69
2023/10/03 00:38:19;;;;;;;38.10;22.57;;;;;;;16.03;70.32;96512.84;5049308;28;20457;-68
2023/10/03 00:40:49;;;;;;;41.87;24.73;;;;;;;16.10;70.62;96511.53;5049240;28;20782;-69
2023/10/03 00:43:15;;;;;;;38.90;23.03;;;;;;;16.01;70.39;96515.59;5049168;28;20194;-68
2023/10/03 00:45:42;;;;;;;40.77;23.43;;;;;;;15.98;70.61;96499.06;5048928;28;20408;-70
2023/10/03 00:48:08;;;;;;;44.87;25.80;;;;;;;16.03;70.88;96504.91;5049164;28;20398;-69
2023/10/03 00:50:35;;;;;;;43.00;22.90;;;;;;;15.95;70.07;96507.22;5049146;28;20437;-69
2023/10/03 00:53:09;;;;;;;40.20;23.53;;;;;;;15.97;70.01;96511.47;5048988;28;20412;-68
2023/10/03 00:55:39;;;;;;;40.80;23.47;;;;;;;15.94;70.52;96502.84;5048898;28;20929;-69
2023/10/03 00:58:07;;;;;;;43.77;25.03;;;;;;;15.83;70.38;96499.09;5048969;28;20461;-70
2023/10/03 01:00:45;;;;;;;44.50;24.33;;;;;;;15.79;70.57;96500.25;5048981;28;20425;-70
2023/10/03 01:03:36;;;;;;;41.67;23.97;;;;;;;15.77;70.60;96488.06;5049065;28;20405;-69
2023/10/03 01:06:07;;;;;;;43.73;21.63;;;;;;;15.83;70.20;96491.16;5048782;28;20406;-69
2023/10/03 01:08:36;;;;;;;38.83;24.73;;;;;;;15.67;71.35;96487.75;5049067;28;20405;-67
2023/10/03 01:11:04;;;;;;;39.60;22.27;;;;;;;15.51;71.93;96490.50;5048778;28;20437;-68
2023/10/03 01:13:30;;;;;;;46.80;25.00;;;;;;;15.51;71.77;96487.00;5048832;28;20837;-69
2023/10/03 01:15:56;;;;;;;48.37;24.10;;;;;;;15.42;72.22;96488.41;5048580;28;20980;-68
2023/10/03 01:18:22;;;;;;;45.93;26.53;;;;;;;15.42;71.69;96491.06;5048040;28;20532;-67
2023/10/03 01:20:51;;;;;;;40.70;23.00;;;;;;;15.51;71.18;96487.00;5048731;28;20518;-69
2023/10/03 01:23:19;;;;;;;50.77;24.90;;;;;;;15.39;71.62;96484.19;5049136;28;20170;-68
2023/10/03 01:25:44;;;;;;;59.47;26.10;;;;;;;15.56;71.15;96483.13;5049522;28;20990;-68
2023/10/03 01:28:13;;;;;;;44.23;23.03;;;;;;;15.33;71.51;96473.13;5049853;28;20441;-67
2023/10/03 01:30:43;;;;;;;45.47;24.13;;;;;;;15.25;71.68;96479.72;5060466;28;20191;-70
2023/10/03 01:33:10;;;;;;;40.77;22.10;;;;;;;15.32;71.80;96474.06;5074261;28;20476;-69
2023/10/03 01:35:35;;;;;;;47.97;23.60;;;;;;;15.23;71.95;96478.97;5071723;28;20406;-69
2023/10/03 01:38:01;;;;;;;44.60;24.37;;;;;;;15.31;71.76;96470.59;5074457;28;20453;-69
2023/10/03 01:40:30;;;;;;;61.00;25.33;;;;;;;15.36;71.19;96476.44;5071863;28;20210;-69
2023/10/03 01:42:57;;;;;;;57.83;28.07;;;;;;;15.31;71.37;96467.09;5050799;28;20420;-68
2023/10/03 01:45:27;;;;;;;40.53;23.00;;;;;;;15.31;71.10;96460.00;5048588;28;20496;-68
2023/10/03 01:47:53;;;;;;;41.23;22.97;;;;;;;15.20;71.87;96463.31;5048459;28;20839;-68
2023/10/03 01:50:20;;;;;;;54.00;25.47;;;;;;;15.19;71.80;96460.78;5048144;28;20479;-70
2023/10/03 01:52:47;;;;;;;45.13;25.17;;;;;;;15.25;71.29;96455.09;5047943;28;20420;-69
2023/10/03 01:55:13;;;;;;;45.53;24.07;;;;;;;15.35;71.37;96456.22;5048304;28;20463;-69
2023/10/03 01:57:40;;;;;;;43.17;25.20;;;;;;;15.27;71.77;96447.09;5047735;28;20464;-69
2023/10/03 02:00:20;;;;;;;39.63;23.70;;;;;;;15.29;71.34;96443.41;5048059;28;20735;-69
2023/10/03 02:02:50;;;;;;;47.80;24.50;;;;;;;15.28;71.37;96443.47;5048334;28;20436;-69
2023/10/03 02:05:19;;;;;;;51.67;23.90;;;;;;;15.29;71.07;96434.63;5048713;28;20488;-69
2023/10/03 02:07:47;;;;;;;47.90;26.33;;;;;;;15.13;71.74;96440.00;5048393;28;20405;-69
2023/10/03 02:10:12;;;;;;;39.23;23.27;;;;;;;15.23;71.03;96441.13;5047835;28;21024;-69
2023/10/03 02:12:51;;;;;;;48.57;24.37;;;;;;;15.23;71.09;96439.31;5048009;28;20467;-69
2023/10/03 02:15:20;;;;;;;36.50;21.17;;;;;;;15.16;71.32;96434.50;5047577;28;20183;-70
2023/10/03 02:17:46;;;;;;;44.00;25.33;;;;;;;15.22;71.21;96434.16;5047209;28;20849;-70
2023/10/03 02:20:16;;;;;;;47.80;26.20;;;;;;;15.21;71.06;96433.31;5047365;28;20524;-68
2023/10/03 02:22:41;;;;;;;44.40;23.60;;;;;;;15.23;70.74;96439.31;5047567;28;20252;-69
2023/10/03 02:25:09;;;;;;;48.60;25.80;;;;;;;15.30;70.74;96426.56;5047324;28;20401;-69
2023/10/03 02:27:34;;;;;;;41.10;22.93;;;;;;;15.25;70.88;96428.66;5047067;28;20179;-70
2023/10/03 02:30:05;;;;;;;40.93;24.00;;;;;;;15.23;70.73;96427.91;5047285;28;20793;-69
2023/10/03 02:32:30;;;;;;;48.90;24.83;;;;;;;15.22;71.00;96420.94;5047741;28;20223;-70
2023/10/03 02:34:56;;;;;;;46.00;24.53;;;;;;;15.21;71.01;96424.50;5047750;28;20405;-68
2023/10/03 02:37:21;;;;;;;43.23;23.67;;;;;;;15.13;71.04;96432.91;5046979;28;20229;-69
2023/10/03 02:39:47;;;;;;;41.67;22.07;;;;;;;15.18;70.80;96428.19;5047385;28;20515;-69
2023/10/03 02:42:12;;;;;;;42.43;23.80;;;;;;;15.12;71.20;96422.41;5047632;28;20173;-69
2023/10/03 02:44:37;;;;;;;41.57;23.80;;;;;;;15.04;71.70;96436.13;5047436;28;20623;-69
2023/10/03 02:47:04;;;;;;;36.67;22.00;;;;;;;15.00;71.92;96426.66;5046729;28;20171;-69
2023/10/03 02:49:30;;;;;;;42.03;24.47;;;;;;;15.09;71.78;96419.97;5046836;28;20194;-69
2023/10/03 02:51:59;;;;;;;38.93;22.83;;;;;;;15.12;71.27;96422.41;5046852;28;20843;-69
2023/10/03 02:54:25;;;;;;;45.80;24.27;;;;;;;15.11;71.91;96420.72;5046744;28;20459;-69
2023/10/03 02:56:51;;;;;;;44.77;25.93;;;;;;;15.12;71.78;96422.41;5046367;28;20433;-70
2023/10/03 02:59:16;;;;;;;41.10;25.10;;;;;;;15.09;71.71;96415.53;5046594;28;20206;-69
2023/10/03 03:01:41;;;;;;;40.97;24.50;;;;;;;14.99;72.10;96422.34;5046845;28;20163;-69
2023/10/03 03:04:09;;;;;;;47.07;24.87;;;;;;;14.99;72.24;96417.91;5046363;28;20198;-68
2023/10/03 03:06:35;;;;;;;39.90;22.93;;;;;;;14.98;72.13;96413.56;5046423;28;20250;-68
2023/10/03 03:09:01;;;;;;;43.23;25.73;;;;;;;14.95;72.38;96416.41;5047057;28;21238;-70
2023/10/03 03:11:28;;;;;;;38.90;23.07;;;;;;;14.87;72.29;96416.00;5047131;28;20448;-68
2023/10/03 03:13:53;;;;;;;43.97;23.83;;;;;;;14.90;72.43;96412.31;5046671;28;20167;-70
2023/10/03 03:16:20;;;;;;;38.87;24.13;;;;;;;14.90;71.96;96412.31;5046453;28;20421;-69
2023/10/03 03:18:47;;;;;;;41.23;23.03;;;;;;;14.86;72.55;96416.97;5046448;28;21069;-69
2023/10/03 03:21:14;;;;;;;40.97;23.13;;;;;;;14.76;72.48;96419.31;5046598;28;20409;-68
2023/10/03 03:23:49;;;;;;;43.37;25.27;;;;;;;14.80;72.64;96417.31;5046780;28;20421;-69
2023/10/03 03:28:42;;;;;;;41.67;23.50;;;;;;;14.87;72.11;96413.38;5046439;28;20439;-70
2023/10/03 03:31:17;;;;;;;50.27;25.27;;;;;;;14.82;72.02;96416.28;5046150;28;20182;-68
2023/10/03 03:33:46;;;;;;;44.57;24.33;;;;;;;14.77;72.17;96409.59;5046367;28;20769;-68
2023/10/03 03:36:18;;;;;;;42.13;23.83;;;;;;;14.74;72.50;96412.41;5045733;28;20417;-69
2023/10/03 03:38:48;;;;;;;46.90;25.00;;;;;;;14.81;71.99;96416.38;5046672;28;20453;-68
2023/10/03 03:41:15;;;;;;;44.63;25.37;;;;;;;14.72;72.40;96409.03;5046555;28;20811;-69
2023/10/03 03:43:41;;;;;;;38.40;21.57;;;;;;;14.57;72.75;96408.13;5048065;28;20421;-70
2023/10/03 03:46:07;;;;;;;39.30;22.17;;;;;;;14.64;72.25;96411.25;5050067;28;20438;-69
2023/10/03 03:48:34;;;;;;;43.33;23.03;;;;;;;14.60;72.39;96411.44;5050081;28;20189;-67
2023/10/03 03:51:00;;;;;;;38.00;23.80;;;;;;;14.63;72.02;96413.06;5049148;28;20949;-68
2023/10/03 03:53:25;;;;;;;48.03;25.53;;;;;;;14.61;72.07;96402.56;5048731;28;20430;-70
2023/10/03 03:55:51;;;;;;;41.37;20.60;;;;;;;14.68;72.20;96407.50;5049399;28;20908;-70
2023/10/03 03:58:18;;;;;;;39.47;22.97;;;;;;;14.56;72.32;96411.72;5047618;28;20210;-69
2023/10/03 04:00:50;;;;;;;42.17;24.50;;;;;;;14.60;72.29;96413.25;5049030;28;20224;-69
2023/10/03 04:03:16;;;;;;;39.23;23.20;;;;;;;14.74;71.55;96408.00;5046674;28;20432;-70
2023/10/03 04:05:42;;;;;;;39.00;21.27;;;;;;;14.76;71.79;96411.38;5045532;28;20496;-70
2023/10/03 04:08:08;;;;;;;40.67;23.63;;;;;;;14.63;71.97;96418.34;5046023;28;20421;-69
2023/10/03 04:10:36;;;;;;;42.80;24.53;;;;;;;14.77;71.71;96421.00;5046316;28;20251;-69
2023/10/03 04:13:07;;;;;;;45.37;24.20;;;;;;;14.76;71.51;96419.31;5045767;28;20466;-69
2023/10/03 04:15:32;;;;;;;42.63;21.40;;;;;;;14.80;71.35;96419.97;5045831;28;20429;-69
2023/10/03 04:17:58;;;;;;;41.47;21.63;;;;;;;14.73;71.83;96411.56;5045807;28;20564;-69
2023/10/03 04:20:30;;;;;;;41.90;22.83;;;;;;;14.65;72.04;96403.25;5045718;28;20256;-69
2023/10/03 04:22:58;;;;;;;39.03;24.47;;;;;;;14.64;72.38;96406.81;5046058;28;20826;-69
2023/10/03 04:25:25;;;;;;;44.03;22.97;;;;;;;14.71;72.46;96409.94;5045974;28;20424;-71
2023/10/03 04:27:54;;;;;;;42.73;22.70;;;;;;;14.68;72.57;96394.28;5046458;28;20832;-70
2023/10/03 04:30:23;;;;;;;44.37;22.50;;;;;;;14.75;72.19;96408.84;5046737;28;20433;-69
2023/10/03 04:32:49;;;;;;;44.50;22.27;;;;;;;14.86;71.95;96405.53;5045876;28;20421;-70
2023/10/03 04:35:15;;;;;;;44.67;25.13;;;;;;;14.81;72.42;96411.09;5045543;28;20436;-71
2023/10/03 04:37:43;;;;;;;44.30;23.70;;;;;;;14.80;72.46;96409.41;5045284;28;20202;-69
2023/10/03 04:40:13;;;;;;;42.43;23.00;;;;;;;14.95;71.89;96395.25;5045875;28;21101;-67
2023/10/03 04:42:40;;;;;;;46.43;24.40;;;;;;;14.92;72.41;96398.06;5045692;28;20424;-70
2023/10/03 04:45:08;;;;;;;44.10;26.60;;;;;;;14.92;72.47;96399.88;5045499;28;20485;-71
2023/10/03 04:47:34;;;;;;;47.30;23.83;;;;;;;14.93;72.36;96396.28;5043982;28;20424;-68
2023/10/03 04:50:00;;;;;;;43.70;21.83;;;;;;;14.91;72.64;96399.03;5045845;28;20425;-69
2023/10/03 04:52:25;;;;;;;42.87;23.00;;;;;;;14.90;72.75;96396.47;5046060;28;20652;-68
2023/10/03 04:54:51;;;;;;;41.87;22.43;;;;;;;14.89;72.63;96400.91;5049831;28;20418;-70
2023/10/03 04:57:16;;;;;;;53.17;24.33;;;;;;;14.88;73.08;96403.63;5049058;28;20661;-69
2023/10/03 04:59:42;;;;;;;43.37;23.70;;;;;;;14.95;72.92;96408.47;5049516;28;20676;-69
2023/10/03 05:02:07;;;;;;;42.50;24.87;;;;;;;14.86;73.07;96402.88;5046169;28;20179;-69
2023/10/03 05:04:34;;;;;;;43.27;23.03;;;;;;;14.93;72.85;96397.16;5049127;28;20256;-68
2023/10/03 05:06:59;;;;;;;41.80;24.00;;;;;;;15.02;72.41;96396.59;5048694;28;20244;-69
2023/10/03 05:09:30;;;;;;;41.63;23.67;;;;;;;14.87;73.16;96396.66;5048889;28;21305;-70
2023/10/03 05:11:55;;;;;;;42.07;24.90;;;;;;;14.86;73.77;96402.88;5047348;28;20179;-70
2023/10/03 05:14:21;;;;;;;46.23;25.40;;;;;;;14.99;73.34;96401.19;5048593;28;20405;-71
2023/10/03 05:16:50;;;;;;;42.00;23.30;;;;;;;15.09;72.89;96396.19;5048573;28;20622;-70
2023/10/03 05:19:16;;;;;;;40.67;23.50;;;;;;;15.05;73.35;96408.75;5048870;28;20195;-70
2023/10/03 05:21:43;;;;;;;39.13;23.50;;;;;;;15.17;72.57;96401.88;5048972;28;20428;-70
2023/10/03 05:24:11;;;;;;;42.13;22.10;;;;;;;15.24;72.40;96403.19;5048770;28;20413;-69
2023/10/03 05:26:38;;;;;;;42.80;25.17;;;;;;;15.26;72.63;96401.28;5048284;28;20417;-69
2023/10/03 05:29:04;;;;;;;46.67;23.43;;;;;;;15.33;72.06;96402.59;5048607;28;20409;-69
2023/10/03 05:31:29;;;;;;;37.07;23.17;;;;;;;15.43;71.85;96398.44;5048828;28;20508;-71
2023/10/03 05:33:56;;;;;;;40.67;24.60;;;;;;;15.65;71.20;96403.19;5048298;28;20170;-69
2023/10/03 05:36:22;;;;;;;50.13;24.27;;;;;;;15.83;70.32;96401.19;5048187;28;20766;-70
2023/10/03 05:38:47;;;;;;;43.93;23.10;;;;;;;16.07;69.53;96406.69;5048047;28;20580;-70
2023/10/03 05:41:21;;;;;;;44.23;24.53;;;;;;;16.27;68.95;96399.22;5046686;28;20539;-69
2023/10/03 05:43:46;;;;;;;37.83;22.10;;;;;;;16.48;68.14;96396.94;5048269;28;20183;-70
2023/10/03 05:46:12;;;;;;;48.97;22.80;;;;;;;16.83;66.70;96391.91;5047833;28;20754;-68
2023/10/03 05:48:38;;;;;;;37.90;21.50;;;;;;;17.06;65.75;96395.59;5048043;28;20167;-68
2023/10/03 05:51:03;;;;;;;49.13;22.30;;;;;;;16.91;65.91;96402.84;5048397;28;20256;-69
2023/10/03 05:53:30;;;;;;;43.10;24.77;;;;;;;16.70;66.63;96405.13;5048461;28;20534;-69
2023/10/03 05:55:56;;;;;;;39.90;23.73;;;;;;;16.61;67.51;96392.50;5048066;28;20182;-67
2023/10/03 05:58:22;;;;;;;41.97;23.17;;;;;;;16.75;66.49;96406.59;5052206;28;20469;-70
2023/10/03 06:00:49;;;;;;;40.17;22.53;;;;;;;17.17;65.62;96400.13;5048339;28;20226;-69
2023/10/03 06:03:15;;;;;;;41.67;23.77;;;;;;;17.82;63.14;96395.59;5047966;28;20983;-69
2023/10/03 06:05:41;;;;;;;46.07;23.67;;;;;;;18.13;61.99;96395.00;5047755;28;20421;-69
2023/10/03 06:08:06;;;;;;;53.93;24.20;;;;;;;18.38;61.00;96386.06;5048097;28;20408;-70
2023/10/03 06:10:32;;;;;;;43.53;22.30;;;;;;;19.10;58.76;96392.16;5047424;28;20245;-69
2023/10/03 06:12:57;;;;;;;34.43;21.60;;;;;;;19.55;56.97;96394.78;5048108;28;20163;-68
2023/10/03 06:15:24;;;;;;;46.63;25.37;;;;;;;20.16;55.16;96387.19;5047617;28;20281;-68
2023/10/03 06:17:52;;;;;;;41.47;22.70;;;;;;;20.40;54.38;96384.28;5047308;28;20202;-69
2023/10/03 06:20:17;;;;;;;34.90;23.50;;;;;;;20.32;54.43;96393.91;5047620;28;20977;-68
2023/10/03 06:22:43;;;;;;;41.07;24.10;;;;;;;20.71;53.71;96381.72;5047272;28;20412;-68
2023/10/03 06:25:09;;;;;;;40.23;23.00;;;;;;;21.11;52.38;96387.16;5047326;28;20190;-71
2023/10/03 06:27:35;;;;;;;40.23;22.93;;;;;;;21.61;51.05;96391.75;5047007;28;20166;-69
2023/10/03 06:30:01;;;;;;;37.77;22.17;;;;;;;21.98;49.75;96388.47;5047094;28;21211;-70
2023/10/03 06:32:26;;;;;;;33.63;22.33;;;;;;;22.14;49.28;96395.97;5047556;28;20248;-69
2023/10/03 06:34:52;;;;;;;32.80;21.20;;;;;;;22.18;49.42;96390.19;5047125;28;20262;-70
2023/10/03 06:37:17;;;;;;;34.80;20.60;;;;;;;22.49;48.53;96395.44;5047089;28;20186;-69
2023/10/03 06:39:43;;;;;;;40.13;21.87;;;;;;;22.70;48.08;96394.41;5047439;28;20865;-68
2023/10/03 06:42:08;;;;;;;40.27;23.77;;;;;;;22.68;48.03;96399.94;5047602;28;20716;-67
2023/10/03 06:44:36;;;;;;;34.83;21.47;;;;;;;22.92;47.46;96403.97;5047231;28;20170;-67
2023/10/03 06:47:04;;;;;;;32.90;20.73;;;;;;;23.42;46.62;96403.72;5046790;28;20969;-67
2023/10/03 06:49:29;;;;;;;29.37;20.77;;;;;;;23.98;45.37;96407.31;5047292;28;20965;-69
2023/10/03 06:51:57;;;;;;;37.40;20.67;;;;;;;24.26;44.61;96408.06;5047376;28;20414;-68
2023/10/03 06:54:24;;;;;;;33.53;22.10;;;;;;;24.44;43.81;96410.78;5047443;28;20181;-69
2023/10/03 06:56:50;;;;;;;32.63;20.87;;;;;;;24.90;42.98;96416.94;5047432;28;20401;-68
2023/10/03 06:59:16;;;;;;;32.73;20.20;;;;;;;24.66;43.87;96415.72;5048448;28;20455;-69
2023/10/03 07:01:41;;;;;;;37.03;22.20;;;;;;;25.07;42.55;96404.47;5040187;28;20413;-70
2023/10/03 07:04:07;;;;;;;30.40;20.00;;;;;;;25.36;42.16;96404.16;5034429;28;20417;-69
2023/10/03 07:06:33;;;;;;;30.37;19.10;;;;;;;25.47;41.86;96401.19;5040943;28;20633;-68
2023/10/03 07:09:00;;;;;;;34.00;22.23;;;;;;;25.29;42.64;96414.69;5041089;28;20175;-70
2023/10/03 07:11:26;;;;;;;34.60;21.03;;;;;;;25.51;42.06;96409.78;5043076;28;20406;-69
2023/10/03 07:13:51;;;;;;;31.60;20.37;;;;;;;25.55;42.08;96409.28;5041275;28;20461;-70
2023/10/03 07:16:17;;;;;;;28.27;18.53;;;;;;;25.32;42.52;96414.41;5027387;28;20830;-68
2023/10/03 07:18:43;;;;;;;29.47;19.43;;;;;;;25.64;42.11;96412.88;5026637;28;20203;-68
2023/10/03 07:21:09;;;;;;;32.43;18.00;;;;;;;25.35;42.64;96419.44;5026399;28;20256;-69
2023/10/03 07:23:35;;;;;;;36.90;21.30;;;;;;;25.39;42.94;96414.56;5026289;28;21028;-68
2023/10/03 07:26:00;;;;;;;29.83;20.50;;;;;;;25.30;42.87;96423.59;5026040;28;20251;-67
2023/10/03 07:28:26;;;;;;;31.80;18.73;;;;;;;25.32;42.96;96421.59;5026659;28;20171;-68
2023/10/03 07:30:51;;;;;;;32.57;18.77;;;;;;;25.27;43.80;96426.59;5026772;28;20202;-69
2023/10/03 07:33:16;;;;;;;26.63;18.20;;;;;;;25.28;43.40;96423.75;5026640;28;20201;-68
2023/10/03 07:35:44;;;;;;;28.93;19.30;;;;;;;25.10;44.04;96417.56;5024585;28;20175;-68
2023/10/03 07:38:11;;;;;;;28.93;18.47;;;;;;;24.90;44.95;96430.34;5026290;28;20229;-68
2023/10/03 07:40:38;;;;;;;27.00;17.50;;;;;;;24.96;44.78;96428.88;5026298;28;20627;-69
2023/10/03 07:43:06;;;;;;;30.47;20.33;;;;;;;25.07;44.47;96431.31;5026519;28;20440;-67
2023/10/03 07:45:32;;;;;;;31.80;18.07;;;;;;;25.13;44.67;96425.28;5026682;28;20410;-68
2023/10/03 07:48:04;;;;;;;35.70;18.90;;;;;;;25.34;44.34;96424.97;5027356;28;21015;-67
2023/10/03 07:50:31;;;;;;;40.07;17.83;;;;;;;24.97;45.00;96430.53;5028028;28;20293;-68
2023/10/03 07:52:57;;;;;;;25.43;17.40;;;;;;;25.50;44.28;96425.06;5047358;28;20409;-68
2023/10/03 07:55:25;;;;;;;25.80;17.20;;;;;;;25.57;43.61;96422.56;5046271;28;20488;-68
2023/10/03 07:57:54;;;;;;;27.23;17.00;;;;;;;25.72;43.46;96430.88;5054324;28;20461;-69
2023/10/03 08:00:26;;;;;;;38.40;17.57;;;;;;;25.69;43.56;96426.66;5058514;28;20471;-70
2023/10/03 08:02:52;;;;;;;32.50;18.50;;;;;;;25.38;44.50;96430.88;5054053;28;20455;-70
2023/10/03 08:05:17;;;;;;;33.50;16.20;;;;;;;25.76;43.79;96429.56;5045983;28;20413;-69
2023/10/03 08:07:47;;;;;;;43.10;19.83;;;;;;;26.13;43.12;96429.22;5046081;28;20405;-67
2023/10/03 08:10:15;;;;;;;25.57;17.33;;;;;;;26.27;42.85;96426.88;5045964;28;20601;-68
2023/10/03 08:12:40;;;;;;;26.30;17.30;;;;;;;26.16;43.03;96430.75;5046116;28;20405;-68
2023/10/03 08:15:20;;;;;;;24.20;17.00;;;;;;;26.42;42.91;96432.50;5046154;28;20911;-69
2023/10/03 08:17:53;;;;;;;25.30;15.90;;;;;;;26.37;42.98;96438.38;5045947;28;20285;-68
2023/10/03 08:20:20;;;;;;;25.13;16.03;;;;;;;26.56;42.72;96430.03;5046314;28;20421;-69
2023/10/03 08:22:50;;;;;;;24.00;15.80;;;;;;;26.58;43.01;96428.00;5046083;28;21333;-69
2023/10/03 08:25:20;;;;;;;22.63;15.97;;;;;;;26.07;44.12;96426.34;5045772;28;20409;-69
2023/10/03 08:27:46;;;;;;;22.77;15.67;;;;;;;26.40;43.64;96429.97;5048219;28;20410;-69
2023/10/03 08:30:27;;;;;;;26.37;15.90;;;;;;;26.56;43.18;96423.81;5049700;28;20443;-69
2023/10/03 08:33:00;;;;;;;22.20;13.40;;;;;;;27.08;42.30;96418.09;5049749;28;20535;-69
2023/10/03 08:35:35;;;;;;;20.80;13.43;;;;;;;26.69;42.72;96416.06;5048612;28;20432;-68
2023/10/03 08:38:07;;;;;;;22.17;13.73;;;;;;;26.75;42.79;96419.94;5047167;28;20800;-67
2023/10/03 08:40:38;;;;;;;22.83;12.97;;;;;;;26.70;42.78;96414.22;5046722;28;20445;-67
2023/10/03 08:43:08;;;;;;;17.63;12.60;;;;;;;26.75;42.08;96423.47;5049792;28;20926;-69
2023/10/03 08:45:43;;;;;;;20.20;12.63;;;;;;;26.53;42.85;96414.19;5046935;28;20409;-68
2023/10/03 08:48:10;;;;;;;15.73;11.87;;;;;;;26.80;42.82;96407.66;5047433;28;20414;-68
2023/10/03 08:50:41;;;;;;;18.70;12.63;;;;;;;26.91;42.70;96408.34;5046035;28;20421;-69
2023/10/03 08:55:50;;;;;;;18.00;12.83;;;;;;;26.96;42.23;96408.66;5048836;28;20432;-67
2023/10/03 08:58:18;;;;;;;14.60;11.80;;;;;;;27.17;41.49;96408.16;5048913;28;20887;-69
2023/10/03 09:00:50;;;;;;;16.97;11.13;;;;;;;27.10;41.38;96402.59;5049061;28;20540;-69
2023/10/03 09:03:17;;;;;;;17.03;11.30;;;;;;;27.04;41.37;96400.56;5049104;28;20504;-68
2023/10/03 09:05:43;;;;;;;15.60;11.63;;;;;;;27.14;41.36;96401.25;5049392;28;20444;-69
2023/10/03 09:08:13;;;;;;;13.80;11.70;;;;;;;27.43;40.49;96399.88;5050647;28;20444;-71
2023/10/03 09:10:51;;;;;;;13.80;10.80;;;;;;;27.54;40.68;96402.19;5049166;28;20433;-69
2023/10/03 09:13:25;;;;;;;19.70;12.20;;;;;;;27.61;40.13;96405.84;5047191;28;20842;-66
2023/10/03 09:16:02;;;;;;;17.70;10.87;;;;;;;27.40;40.72;96406.47;5045638;28;20421;-69
2023/10/03 09:18:30;;;;;;;20.37;10.30;;;;;;;27.63;40.58;96409.22;5046165;28;20501;-71
2023/10/03 09:20:59;;;;;;;18.30;11.00;;;;;;;27.70;39.90;96405.84;5043859;28;20947;-69
2023/10/03 09:23:27;;;;;;;16.07;9.83;;;;;;;27.52;40.12;96417.72;5046140;28;20425;-70
2023/10/03 09:25:55;;;;;;;26.03;11.40;;;;;;;27.47;40.27;96409.28;5045502;28;20827;-70
2023/10/03 09:28:27;;;;;;;16.00;11.60;;;;;;;27.34;39.53;96399.03;5046305;28;21270;-69
2023/10/03 09:30:55;;;;;;;14.27;11.10;;;;;;;27.16;40.50;96396.50;5045439;28;20511;-71
2023/10/03 09:33:21;;;;;;;18.73;11.80;;;;;;;27.17;40.35;96395.50;5046129;28;20908;-69
2023/10/03 09:35:58;;;;;;;21.87;10.03;;;;;;;27.07;40.37;96391.31;5045128;28;20416;-68
2023/10/03 09:38:44;;;;;;;20.50;10.93;;;;;;;26.57;41.12;96382.41;5044473;28;20488;-69
2023/10/03 09:41:17;;;;;;;18.67;10.20;;;;;;;27.01;41.16;96385.59;5045131;28;20987;-71
2023/10/03 09:43:47;;;;;;;25.43;11.87;;;;;;;26.95;40.53;96374.66;5045525;28;20478;-71
2023/10/03 09:46:13;;;;;;;18.23;10.20;;;;;;;27.03;40.22;96366.59;5044682;28;20405;-70
2023/10/03 09:48:39;;;;;;;21.67;11.00;;;;;;;27.12;39.77;96362.88;5045240;28;20416;-70
2023/10/03 09:51:05;;;;;;;15.40;10.97;;;;;;;26.77;40.39;96369.47;5044702;28;20433;-69
2023/10/03 09:53:32;;;;;;;31.77;11.30;;;;;;;26.77;40.95;96375.69;5046424;28;20174;-71
2023/10/03 09:56:00;;;;;;;22.50;11.53;;;;;;;26.84;40.46;96365.09;5045479;28;20413;-69
2023/10/03 09:58:31;;;;;;;29.83;10.73;;;;;;;26.86;40.94;96370.28;5045709;28;20500;-69
2023/10/03 10:00:57;;;;;;;21.20;10.40;;;;;;;27.03;40.79;96366.59;5044660;28;20441;-67
2023/10/03 10:03:46;;;;;;;12.73;8.90;;;;;;;27.14;40.29;96363.53;5045082;28;20516;-68
2023/10/03 10:06:38;;;;;;;17.40;8.97;;;;;;;27.13;40.25;96363.69;5045681;28;20417;-67
2023/10/03 10:09:14;;;;;;;13.97;9.90;;;;;;;27.16;40.40;96361.50;5044467;28;20896;-69
2023/10/03 10:12:21;;;;;;;17.73;10.17;;;;;;;27.34;39.70;96363.19;5044985;28;20408;-69
2023/10/03 10:17:51;;;;;;;15.87;9.90;;;;;;;27.18;38.74;96362.16;5044488;28;20511;-69
2023/10/03 10:20:18;;;;;;;15.00;8.23;;;;;;;27.12;39.10;96353.91;5044740;28;21251;-68
2023/10/03 10:22:59;;;;;;;14.17;8.20;;;;;;;27.29;39.03;96365.56;5044799;28;20409;-69
2023/10/03 10:28:34;;;;;;;22.70;10.07;;;;;;;27.45;38.13;96360.13;5032278;28;20417;-70
2023/10/03 10:31:15;;;;;;;27.07;10.40;;;;;;;27.40;38.27;96360.63;5044059;28;20749;-68
2023/10/03 10:33:41;;;;;;;12.53;8.60;;;;;;;27.52;37.87;96355.72;5044686;28;20466;-70
2023/10/03 10:36:10;;;;;;;13.10;7.90;;;;;;;27.59;37.96;96351.31;5043948;28;20456;-68
2023/10/03 10:38:35;;;;;;;14.27;9.17;;;;;;;27.74;37.41;96358.66;5044580;28;20226;-67
2023/10/03 10:41:17;;;;;;;9.37;8.03;;;;;;;27.30;38.37;96357.28;5043945;28;20545;-71
2023/10/03 10:44:08;;;;;;;17.97;8.27;;;;;;;26.98;38.64;96360.88;5044050;28;20265;-69
2023/10/03 10:46:38;;;;;;;13.20;7.60;;;;;;;27.16;38.14;96352.56;5044329;28;20397;-69
2023/10/03 10:49:06;;;;;;;16.50;9.00;;;;;;;27.33;37.80;96354.25;5044456;28;20413;-67
2023/10/03 10:51:34;;;;;;;13.20;7.90;;;;;;;27.07;37.75;96350.91;5044446;28;20491;-67
2023/10/03 10:54:00;;;;;;;9.07;7.43;;;;;;;26.55;38.06;96349.44;5044307;28;20404;-68
2023/10/03 10:56:28;;;;;;;7.60;6.53;;;;;;;26.31;38.67;96350.22;5044151;28;20411;-68
2023/10/03 10:59:06;;;;;;;14.50;7.90;;;;;;;26.40;38.42;96339.31;5044529;28;20257;-68
2023/10/03 11:01:38;;;;;;;12.57;7.30;;;;;;;26.62;38.20;96342.38;5043675;28;21228;-67
2023/10/03 11:04:04;;;;;;;11.93;8.03;;;;;;;26.93;37.64;96344.34;5043873;28;20421;-70
2023/10/03 11:06:30;;;;;;;12.00;7.87;;;;;;;27.04;37.17;96331.38;5043606;28;20413;-68
2023/10/03 11:08:55;;;;;;;11.33;7.97;;;;;;;27.13;37.19;96321.44;5043755;28;20867;-68
2023/10/03 11:11:21;;;;;;;13.50;7.73;;;;;;;27.23;37.00;96314.00;5044171;28;20192;-69
2023/10/03 11:13:50;;;;;;;12.33;7.10;;;;;;;27.27;35.76;96317.22;5044093;28;20171;-67
2023/10/03 11:16:23;;;;;;;8.63;7.50;;;;;;;27.29;35.27;96303.59;5043625;28;20187;-66
2023/10/03 11:18:51;;;;;;;11.40;6.90;;;;;;;27.35;35.69;96305.56;5044149;28;20463;-67
2023/10/03 11:21:18;;;;;;;9.80;6.97;;;;;;;27.35;35.67;96305.56;5043771;28;20433;-67
2023/10/03 11:24:18;;;;;;;17.13;7.83;;;;;;;27.43;35.57;96305.53;5043597;28;20412;-70
2023/10/03 11:26:54;;;;;;;9.93;6.77;;;;;;;27.42;35.64;96298.47;5043644;28;20166;-69
2023/10/03 11:29:43;;;;;;;9.97;7.27;;;;;;;27.46;35.75;96294.41;5044476;28;20507;-66
2023/10/03 11:32:24;;;;;;;11.33;6.20;;;;;;;27.42;35.26;96284.97;5044307;28;20401;-69
2023/10/03 11:34:52;;;;;;;7.93;5.80;;;;;;;27.50;35.42;96279.56;5046817;28;20842;-70
2023/10/03 11:37:46;;;;;;;7.83;6.23;;;;;;;27.54;34.84;96272.78;5043871;28;20425;-69